Glen Cove, ME (04846)

10:58 AM EDT on August 27, 2016 (GMT -0400)
Beech Hill Road | | Change Station

Elev 488 ft 44.17 °N, 69.10 °W | Updated 4 minutes ago

Clear
Clear
71.6 °F
Feels Like 74 °F
N
0.6
Wind Variable Wind from NW
Gusts 1.9 mph

Today
High -- | Low -- °F
--% Chance of Precip.
Yesterday
High -- | Low -- °F
Precip. -- in
Pressure 30.18 in
Visibility 10.0 miles
Clouds Clear
Heat Index 74 °F
Dew Point 62 °F
Humidity 71%
Rainfall 0.00 in
Snow Depth Not available.
5:54 AM 7:20 PM
Waning Crescent, 24% visible
METAR KRKD 271456Z AUTO VRB04KT 10SM CLR 24/16 A3017 RMK AO2 SLP218 60001 T02440161 51010
Pressure 30.18 in
Visibility 10.0 miles
Clouds Clear
Heat Index 74 °F
Dew Point 62 °F
Humidity 71%
Rainfall 0.00 in
Snow Depth Not available.
5:54 AM 7:20 PM
Waning Crescent, 24% visible
METAR KRKD 271456Z AUTO VRB04KT 10SM CLR 24/16 A3017 RMK AO2 SLP218 60001 T02440161 51010

10-Day Weather Forecast

Almanac

Astronomy

Aug. 27, 2016 Rise Set
Actual Time
Civil Twilight
Nautical Twilight
Astronomical Twilight
Moon
Length of Visible Light
Length of Day
Tomorrow will be .
, % of the Moon is Illuminated

Today's Extremes

State Highs State Lows

Community

WunderPhotos

Upload Photos

1,935,344 photos uploaded!

WunderBlog® & News

Nearby

Air Quality

  Air Quality AQ Index Pollutant
Not available.

Snow Depth

Station Depth Elevation

Earthquake Activity

City Distance Mag. Time & Date
Minimum magnitude displayed is 2.5.

Coastal Water Temperatures

Place Temperature

Stations

Nearby Weather Stations

Station Location Temp. Windchill Dew Point Humidity Wind Precip. Elev Updated Type
                   

Watches & Warnings

There are currently no watches in effect.